Allegheny County Airport
KAGC : now visible

Airfield :











YOU CAN JOIN US ON...

 
LOGIN :

Register | Disclaimer

   EN    FR    IT 

 









Legend :    VFR   Marginal VFR   IFR   Intensive IFR   Very Intensive IFR
Visi :
Ceiling :
>= 8 km
>= 3000ft
5 to 8 km
1000 to 3000 ft
1500m to 5 km
500 to 1000 ft
800 to 1500m
200 to 500 ft
< 800m
< 200 ft
Symbols :   Thunderstorms  Fog  Heavy snow  Heavy precipitations  Wind > 20 kt






- Airport Elevation : 1252 ft
- IATA code : AGC


KAGC - Allegheny County

CURRENT METAR :
  • 291853Z 21009KT 8SM -RA OVC009 06/04 A3005 RMK AO2 SLP189 P0001 T00560044

EXPIRED METARs :
  • 291753Z 20008KT 9SM -RA OVC008 05/04 A3007 RMK AO2 RAB53 CIG 006V011 SLP196 P0000 60015 T00500039 10072 20044 58012
  • 291701Z 19009KT 6SM BR BKN008 OVC013 04/03 A3009 RMK AO2 CIG 005V011 T00440033
  • 291653Z 19010KT 5SM BR OVC011 04/03 A3009 RMK AO2 RAE49 CIG 006V014 SLP203 P0002 T00440033
  • 291638Z 19008KT 4SM -RA BR BKN012 OVC018 04/03 A3010 RMK AO2 P0002 T00440033
  • 291627Z 19010KT 2 1/2SM -RA BR BKN012 OVC018 04/03 A3010 RMK AO2 P0002 T00440033
  • 291553Z 19010KT 3SM -RA BR SCT013 OVC025 04/03 A3011 RMK AO2 SLP210 P0006 T00440033

TAF KAGC
Valid from the 29 at 19:00 until the 30 at 18:00 UTC


291832Z 2919/3018 21008KT 6SM -RA BR OVC008
FM292000 22010G18KT 5SM BR VCSH OVC007
FM300200 25008KT 3SM BR OVC005
FM300500 32006KT 2SM -DZ BR OVC003
FM301500 30004KT 4SM -DZ BR OVC004
KZOB FIR / North America



MET'MAP, your aeronautical weather chart ! - Copyright ORBIFLY December 2007 - Disclaimer

ORBIFLY MET'MAP TEAM :

Programming & Development : Alexandra Zaïnal
Original concept : Baudouin d'Aumeries
Technical & hardware support : Manuel Goepfert
Assistance : Marc-Olivier Méhu




SOURCES & CREDITS :

   NOAA       Earth
Advisory